• Join FlightAware (Why Join?)
  • Login
  • US Flag 
02:57AM EDT


 

Airport Tracker/Info


-or-


 

Live Flight TrackerFlight Track Log ✈ CTL13 ✈ 11-Apr-2013 ✈ KEYE - KMDW

Flight Track Log - Related Links

Times and Time Zones

All times are in EDT time to prevent confusion due to time zone crossing. See the CTL13 flight status page for this flight to view local times or setup timezone preferences in your user account.

Time Position Orientation Groundspeed Altitude Reporting Facility
EDT Latitude Longitude Course Direction KTS MPH feet Rate Location/Type
08:31PM 39.8667 -86.2833 323° Northwest 122 140 1,600  Level Indianapolis TRACON
08:32PM 39.8833 -86.3000 323° Northwest 122 140 2,200 960 Climbing Indianapolis TRACON
08:33PM 39.9000 -86.3333 303° West 123 142 3,200 840 Climbing Indianapolis TRACON
08:34PM 39.9333 -86.3500 339° North 135 155 3,900 660 Climbing Indianapolis TRACON
08:35PM 39.9667 -86.3833 323° Northwest 152 175 4,600 240 Climbing Indianapolis TRACON
08:37PM 40.0210 -86.4542 315° West  Level FlightAware Approximate
08:41PM 40.2011 -86.6464 320° Northwest 229 264 5,900  Level Chicago Center
08:42PM 40.2250 -86.6622 333° Northwest 195 224 5,800  Descending Chicago Center
08:42PM 40.2511 -86.6747 340° North 193 222 5,900 60 Climbing Chicago Center
08:43PM 40.2694 -86.7033 310° West 190 219 5,900 -120 Level Chicago Center
08:43PM 40.2897 -86.7206 327° Northwest 190 219 5,800 60 Descending Chicago Center
08:44PM 40.2790 -86.7705 320° Northwest  Level FlightAware Approximate
08:44PM 40.3053 -86.7464 308° West 187 215 6,000  Level Chicago Center
08:45PM 40.3176 -86.8124 320° Northwest  Level FlightAware Approximate
08:45PM 40.3269 -86.7686 322° Northwest 189 217 6,000  Level Chicago Center
08:45PM 40.3431 -86.7953 308° West 184 212 6,000 -120 Level Chicago Center
08:46PM 40.3561 -86.8544 320° Northwest  Level FlightAware Approximate
08:46PM 40.3619 -86.8150 321° Northwest 185 213 5,900  Level Chicago Center
08:46PM 40.3789 -86.8411 310° West 186 214 6,000 60 Climbing Chicago Center
08:47PM 40.3946 -86.8964 320° Northwest  Level FlightAware Approximate
08:47PM 40.4061 -86.8733 318° Northwest 186 214 6,000  Level Chicago Center
08:47PM 40.4189 -86.8903 315° West 186 214 6,000  Level Chicago Center
08:48PM 40.4447 -86.9181 321° Northwest 187 215 6,000  Level Chicago Center
08:48PM 40.4547 -86.9364 306° West 185 213 6,000  Level Chicago Center
08:49PM 40.4786 -86.9647 318° Northwest 182 209 6,000  Level Chicago Center
08:49PM 40.4903 -86.9878 304° West 182 209 6,000  Level Chicago Center
08:50PM 40.5136 -87.0117 322° Northwest 181 208 6,000  Level Chicago Center
08:51PM 40.5503 -87.0564 317° Northwest 181 208 6,000 -60 Level Chicago Center
08:52PM 40.6000 -87.1033 324° Northwest 182 209 5,900 -60 Descending Chicago Center
08:53PM 40.6517 -87.1278 340° North 187 215 5,900  Level Chicago Center
08:54PM 40.7042 -87.1500 342° North 193 222 5,900  Level Chicago Center
08:55PM 40.7533 -87.1778 337° Northwest 194 223 5,900 -60 Level Chicago Center
08:56PM 40.8081 -87.1811 357° North 198 228 5,800 -180 Descending Chicago Center
08:57PM 40.8647 -87.1242 37° Northeast 211 243 5,600 -300 Descending Chicago Center
08:58PM 40.9144 -87.0739 37° Northeast 218 251 5,300 -300 Descending Chicago Center
08:59PM 40.9642 -87.0267 36° Northeast 222 255 5,000 -180 Descending Chicago Center
09:00PM 41.0169 -87.0036 18° North 217 250 5,000  Level Chicago Center
09:01PM 41.0728 -86.9950 North 204 235 5,000 -60 Level Chicago Center
09:02PM 41.1383 -87.0022 355° North 200 230 4,900 -60 Descending Chicago Center
09:03PM 41.1911 -87.0153 349° North 196 226 4,900  Level Chicago Center
09:04PM 41.2394 -87.0392 340° North 190 219 4,900  Level Chicago Center
09:05PM 41.2883 -87.0619 341° North 187 215 4,900  Level Chicago Center
09:06PM 41.3383 -87.0831 342° North 188 216 4,900  Level Chicago Center
09:07PM 41.3900 -87.1036 343° North 192 221 4,900  Level Chicago Center
09:08PM 41.4333 -87.1333 333° Northwest 187 215 4,900  Level Chicago TRACON
09:09PM 41.4833 -87.1500 346° North 186 214 4,900  Level Chicago TRACON
09:10PM 41.5333 -87.1833 333° Northwest 179 206 4,900  Level Chicago TRACON
09:11PM 41.5333 -87.2500 270° West 163 188 4,900  Level Chicago TRACON
09:12PM 41.5333 -87.3000 270° West 156 180 4,900  Level Chicago TRACON
09:13PM 41.5333 -87.3667 270° West 156 180 4,900  Level Chicago TRACON
09:14PM 41.5500 -87.4167 294° West 166 191 5,000 60 Climbing Chicago TRACON
09:14PM 41.5544 -87.4281 298° West 165 190 5,000 -120 Level Chicago Center
09:16PM 41.5864 -87.4744 313° West 171 197 4,900 -60 Descending Chicago Center
09:17PM 41.6189 -87.5197 314° West 171 197 4,900 -300 Level Chicago Center
09:18PM 41.6525 -87.5653 315° West 171 197 4,300 -840 Descending Chicago Center
09:19PM 41.6933 -87.6219 314° West 175 201 3,200 -1,020 Descending Chicago Center
09:19PM 41.7167 -87.6500 318° Northwest 174 200 2,700 -1,020 Descending Chicago TRACON
09:20PM 41.7500 -87.7000 312° West 170 196 1,700 -900 Descending Chicago TRACON
09:21PM 41.7667 -87.7333 304° West 138 159 1,000 -780 Descending Chicago TRACON